Time,TemperatureF,DewpointF,PressureIn,WindDirection,WindDirectionDegrees,WindSpeedMPH,WindSpeedGustMPH,Humidity,HourlyPrecipIn,Conditions,Clouds,dailyrainin,SoftwareType,DateUTC
2013-05-23 00:04:00,45.1,44.6,29.97,WSW,248,0.0,0.0,98,0.09,,---,0.00,VWS V14.01,2013-05-23 07:04:00,
2013-05-23 00:10:00,45.1,44.6,29.97,WSW,248,0.0,0.0,98,0.09,,---,0.00,VWS V14.01,2013-05-23 07:10:00,
2013-05-23 00:15:00,45.1,44.6,29.97,WSW,248,0.0,0.0,98,0.04,,---,0.00,VWS V14.01,2013-05-23 07:15:00,
2013-05-23 00:20:00,45.1,44.6,29.97,WSW,248,0.0,0.0,98,0.04,,---,0.00,VWS V14.01,2013-05-23 07:20:00,
2013-05-23 00:25:00,45.1,44.6,29.97,WSW,248,0.0,0.0,98,0.00,,---,0.00,VWS V14.01,2013-05-23 07:25:00,
2013-05-23 00:30:00,45.1,44.6,29.97,WSW,248,0.0,0.0,98,0.00,,---,0.00,VWS V14.01,2013-05-23 07:30:00,
2013-05-23 00:35:00,45.1,44.6,29.97,WSW,248,0.0,0.0,98,0.00,,---,0.00,VWS V14.01,2013-05-23 07:35:00,
2013-05-23 00:40:00,45.1,44.6,29.97,WSW,248,0.0,0.0,98,0.00,,---,0.00,VWS V14.01,2013-05-23 07:40:00,
2013-05-23 00:45:00,45.1,44.6,29.97,West,270,0.0,0.0,98,0.00,,---,0.00,VWS V14.01,2013-05-23 07:45:00,
2013-05-23 00:50:00,45.3,44.8,29.97,West,270,0.0,0.0,98,0.00,,---,0.00,VWS V14.01,2013-05-23 07:50:00,
2013-05-23 00:55:00,45.3,44.8,29.97,West,270,0.0,0.0,98,0.00,,---,0.00,VWS V14.01,2013-05-23 07:55:00,
2013-05-23 01:11:00,45.3,44.8,29.97,ENE,68,0.0,0.0,98,0.00,,---,0.00,VWS V14.01,2013-05-23 08:11:00,
2013-05-23 01:16:00,45.3,44.8,29.97,ENE,68,0.0,0.0,98,0.00,,---,0.00,VWS V14.01,2013-05-23 08:16:00,
2013-05-23 01:21:00,45.3,44.8,29.97,ENE,68,0.0,1.6,98,0.00,,---,0.00,VWS V14.01,2013-05-23 08:21:00,
2013-05-23 01:26:00,45.3,44.8,29.97,ENE,68,0.0,0.0,98,0.00,,---,0.00,VWS V14.01,2013-05-23 08:26:00,
2013-05-23 01:31:00,45.3,44.8,29.97,ENE,68,0.0,0.0,98,0.00,,---,0.00,VWS V14.01,2013-05-23 08:31:00,
2013-05-23 01:36:00,45.3,44.8,29.97,North,0,0.0,0.0,98,0.00,,---,0.00,VWS V14.01,2013-05-23 08:36:00,
2013-05-23 01:41:00,45.3,44.8,29.97,North,0,0.0,0.0,98,0.00,,---,0.00,VWS V14.01,2013-05-23 08:41:00,
2013-05-23 01:46:00,45.3,44.8,29.94,North,0,0.0,0.0,98,0.00,,---,0.00,VWS V14.01,2013-05-23 08:46:00,
2013-05-23 01:51:00,45.3,44.8,29.94,North,0,0.0,0.0,98,0.00,,---,0.00,VWS V14.01,2013-05-23 08:51:00,
2013-05-23 01:56:00,45.5,45.0,29.94,North,0,0.0,0.0,98,0.00,,---,0.00,VWS V14.01,2013-05-23 08:56:00,
2013-05-23 02:01:00,45.3,44.8,29.94,North,0,0.0,0.0,98,0.00,,---,0.00,VWS V14.01,2013-05-23 09:01:00,
2013-05-23 02:06:00,45.3,44.8,29.94,North,0,0.0,0.0,98,0.00,,---,0.00,VWS V14.01,2013-05-23 09:06:00,
2013-05-23 02:11:00,45.3,44.8,29.94,North,0,0.0,0.0,98,0.00,,---,0.00,VWS V14.01,2013-05-23 09:11:00,
2013-05-23 02:16:00,45.3,44.8,29.94,SSE,158,0.0,0.0,98,0.00,,---,0.00,VWS V14.01,2013-05-23 09:16:00,
2013-05-23 02:21:00,45.3,44.8,29.94,WNW,292,0.0,0.0,98,0.00,,---,0.00,VWS V14.01,2013-05-23 09:21:00,
2013-05-23 02:26:00,45.3,44.8,29.94,NNW,338,0.0,0.0,98,0.00,,---,0.00,VWS V14.01,2013-05-23 09:26:00,
2013-05-23 02:31:00,45.3,44.8,29.97,NNW,338,0.0,0.0,98,0.00,,---,0.00,VWS V14.01,2013-05-23 09:31:00,
2013-05-23 02:36:00,45.1,44.6,29.97,NNW,338,0.0,0.0,98,0.00,,---,0.00,VWS V14.01,2013-05-23 09:36:00,
2013-05-23 02:42:00,45.3,44.8,29.97,NNW,338,0.0,0.0,98,0.00,,---,0.00,VWS V14.01,2013-05-23 09:42:00,
2013-05-23 02:47:00,45.1,44.6,29.97,NNW,338,0.0,0.0,98,0.00,,---,0.00,VWS V14.01,2013-05-23 09:47:00,
2013-05-23 02:52:00,45.1,44.6,29.97,WNW,292,0.0,0.0,98,0.00,,---,0.00,VWS V14.01,2013-05-23 09:52:00,
2013-05-23 02:57:00,45.1,44.6,29.97,NW,315,0.0,0.0,98,0.00,,---,0.00,VWS V14.01,2013-05-23 09:57:00,
2013-05-23 03:02:00,45.0,44.4,29.94,WNW,292,0.0,0.0,98,0.00,,---,0.00,VWS V14.01,2013-05-23 10:02:00,
2013-05-23 03:07:00,45.0,44.4,29.94,WNW,292,0.0,0.0,98,0.00,,---,0.00,VWS V14.01,2013-05-23 10:07:00,
2013-05-23 03:12:00,44.8,44.2,29.94,WNW,292,0.0,0.0,98,0.00,,---,0.00,VWS V14.01,2013-05-23 10:12:00,
2013-05-23 03:17:00,44.8,44.2,29.97,WNW,292,0.0,0.0,98,0.00,,---,0.00,VWS V14.01,2013-05-23 10:17:00,
2013-05-23 03:22:00,44.6,44.1,29.97,WNW,292,0.0,0.0,98,0.00,,---,0.00,VWS V14.01,2013-05-23 10:22:00,
2013-05-23 03:27:00,44.6,44.1,29.97,WNW,292,0.0,0.0,98,0.00,,---,0.00,VWS V14.01,2013-05-23 10:27:00,
2013-05-23 03:32:00,44.4,43.9,29.97,WNW,292,0.0,0.0,98,0.00,,---,0.00,VWS V14.01,2013-05-23 10:32:00,
2013-05-23 03:37:00,44.4,43.9,29.97,WNW,292,0.0,0.0,98,0.00,,---,0.00,VWS V14.01,2013-05-23 10:37:00,
2013-05-23 03:42:00,44.4,43.9,29.97,WNW,292,0.0,0.0,98,0.00,,---,0.00,VWS V14.01,2013-05-23 10:42:00,
2013-05-23 03:47:00,44.4,43.9,29.97,WNW,292,0.0,0.0,98,0.00,,---,0.00,VWS V14.01,2013-05-23 10:47:00,
2013-05-23 03:52:00,44.2,43.7,29.97,WNW,292,0.0,0.0,98,0.00,,---,0.00,VWS V14.01,2013-05-23 10:52:00,
2013-05-23 03:57:00,44.1,43.5,29.97,WNW,292,0.0,0.0,98,0.00,,---,0.00,VWS V14.01,2013-05-23 10:57:00,
2013-05-23 04:02:00,43.9,43.3,29.97,WNW,292,0.0,0.0,98,0.00,,---,0.00,VWS V14.01,2013-05-23 11:02:00,
2013-05-23 04:07:00,43.9,43.3,29.97,WNW,292,0.0,0.0,98,0.00,,---,0.00,VWS V14.01,2013-05-23 11:07:00,
2013-05-23 04:12:00,44.1,43.5,29.97,NW,315,0.0,0.0,98,0.00,,---,0.00,VWS V14.01,2013-05-23 11:12:00,
2013-05-23 04:17:00,44.1,43.5,29.94,NW,315,0.0,0.0,98,0.00,,---,0.00,VWS V14.01,2013-05-23 11:17:00,
2013-05-23 04:22:00,44.2,43.7,29.94,NW,315,0.0,0.0,98,0.00,,---,0.00,VWS V14.01,2013-05-23 11:22:00,
2013-05-23 04:27:00,44.2,43.7,29.94,NW,315,0.0,0.0,98,0.00,,---,0.00,VWS V14.01,2013-05-23 11:27:00,
2013-05-23 04:33:00,44.2,43.7,29.97,NW,315,0.0,0.0,98,0.00,,---,0.00,VWS V14.01,2013-05-23 11:33:00,
2013-05-23 04:38:00,44.4,43.9,29.97,NW,315,0.0,0.0,98,0.00,,---,0.00,VWS V14.01,2013-05-23 11:38:00,
2013-05-23 04:43:00,44.4,43.9,29.97,NW,315,0.0,0.0,98,0.00,,---,0.00,VWS V14.01,2013-05-23 11:43:00,
2013-05-23 04:48:00,44.4,43.9,29.97,NW,315,0.0,0.0,98,0.00,,---,0.00,VWS V14.01,2013-05-23 11:48:00,
2013-05-23 04:53:00,44.4,43.9,29.97,NW,315,0.0,0.0,98,0.00,,---,0.00,VWS V14.01,2013-05-23 11:53:00,
2013-05-23 04:58:00,44.4,43.9,29.97,NW,315,0.0,0.0,98,0.00,,---,0.00,VWS V14.01,2013-05-23 11:58:00,
2013-05-23 05:06:00,44.4,43.9,29.97,WNW,292,0.0,0.0,98,0.00,,---,0.00,VWS V14.01,2013-05-23 12:06:00,
2013-05-23 05:11:00,44.4,43.9,29.97,WNW,292,0.0,0.0,98,0.00,,---,0.00,VWS V14.01,2013-05-23 12:11:00,
2013-05-23 05:16:00,44.4,43.9,29.97,WNW,292,0.0,0.0,98,0.00,,---,0.00,VWS V14.01,2013-05-23 12:16:00,
2013-05-23 05:21:00,44.4,43.9,29.97,WNW,292,0.0,0.0,98,0.00,,---,0.00,VWS V14.01,2013-05-23 12:21:00,
2013-05-23 05:26:00,44.4,43.9,29.97,WNW,292,0.0,0.0,98,0.00,,---,0.00,VWS V14.01,2013-05-23 12:26:00,
2013-05-23 05:31:00,44.4,43.9,29.97,WNW,292,0.0,0.0,98,0.00,,---,0.00,VWS V14.01,2013-05-23 12:31:00,
2013-05-23 05:36:00,44.4,43.9,29.97,NW,315,0.0,0.0,98,0.00,,---,0.00,VWS V14.01,2013-05-23 12:36:00,
2013-05-23 05:41:00,44.4,43.9,29.97,NNE,22,0.0,0.0,98,0.00,,---,0.00,VWS V14.01,2013-05-23 12:41:00,
2013-05-23 05:46:00,44.4,43.9,29.97,NNE,22,0.0,0.0,98,0.00,,---,0.00,VWS V14.01,2013-05-23 12:46:00,
2013-05-23 05:51:00,44.4,43.9,29.97,NNE,22,0.0,0.0,98,0.00,,---,0.00,VWS V14.01,2013-05-23 12:51:00,
2013-05-23 05:56:00,44.6,44.1,29.97,NNE,22,0.0,0.0,98,0.00,,---,0.00,VWS V14.01,2013-05-23 12:56:00,
2013-05-23 06:01:00,44.6,44.1,30.00,NNE,22,0.0,0.0,98,0.00,,---,0.00,VWS V14.01,2013-05-23 13:01:00,
2013-05-23 06:06:00,44.6,44.1,30.00,NNE,22,0.0,0.0,98,0.00,,---,0.00,VWS V14.01,2013-05-23 13:06:00,
2013-05-23 06:12:00,44.6,44.1,30.00,NW,315,0.0,0.0,98,0.00,,---,0.00,VWS V14.01,2013-05-23 13:12:00,
2013-05-23 06:17:00,44.8,44.2,30.00,NW,315,0.0,0.0,98,0.00,,---,0.00,VWS V14.01,2013-05-23 13:17:00,
2013-05-23 06:22:00,44.8,44.2,30.00,NW,315,0.0,0.0,98,0.04,,---,0.04,VWS V14.01,2013-05-23 13:22:00,
2013-05-23 06:27:00,44.8,44.2,30.00,NW,315,0.0,0.0,98,0.04,,---,0.04,VWS V14.01,2013-05-23 13:27:00,
2013-05-23 06:32:00,45.0,44.4,30.00,NW,315,0.0,0.0,98,0.04,,---,0.04,VWS V14.01,2013-05-23 13:32:00,
2013-05-23 06:37:00,45.0,44.4,30.00,NW,315,0.0,0.0,98,0.04,,---,0.04,VWS V14.01,2013-05-23 13:37:00,
2013-05-23 06:42:00,45.0,44.4,30.00,NW,315,0.0,0.0,98,0.04,,---,0.04,VWS V14.01,2013-05-23 13:42:00,
2013-05-23 06:47:00,45.1,44.6,30.00,NW,315,0.0,0.0,98,0.04,,---,0.04,VWS V14.01,2013-05-23 13:47:00,
2013-05-23 06:52:00,45.1,44.6,30.00,NW,315,0.0,0.0,98,0.04,,---,0.04,VWS V14.01,2013-05-23 13:52:00,
2013-05-23 06:57:00,45.3,44.8,30.00,NW,315,0.0,0.0,98,0.04,,---,0.04,VWS V14.01,2013-05-23 13:57:00,
2013-05-23 07:02:00,45.5,45.0,30.00,NW,315,0.0,0.0,98,0.04,,---,0.04,VWS V14.01,2013-05-23 14:02:00,
2013-05-23 07:07:00,45.7,45.2,30.00,NW,315,0.0,0.0,98,0.04,,---,0.04,VWS V14.01,2013-05-23 14:07:00,
2013-05-23 07:12:00,45.5,45.0,30.00,WSW,248,0.0,1.3,98,0.04,,---,0.04,VWS V14.01,2013-05-23 14:12:00,
2013-05-23 07:17:00,45.5,45.0,30.00,West,270,0.0,0.0,98,0.04,,---,0.04,VWS V14.01,2013-05-23 14:17:00,
2013-05-23 07:22:00,45.7,45.2,30.00,West,270,0.0,0.0,98,0.00,,---,0.04,VWS V14.01,2013-05-23 14:22:00,
2013-05-23 07:27:00,45.7,45.2,30.00,West,270,0.0,0.0,98,0.00,,---,0.04,VWS V14.01,2013-05-23 14:27:00,
2013-05-23 07:32:00,45.9,45.3,30.00,West,270,0.0,0.0,98,0.00,,---,0.04,VWS V14.01,2013-05-23 14:32:00,
2013-05-23 07:37:00,45.9,45.3,30.00,West,270,0.0,0.0,98,0.00,,---,0.04,VWS V14.01,2013-05-23 14:37:00,
2013-05-23 07:42:00,46.0,45.5,30.00,West,270,0.0,0.0,98,0.04,,---,0.08,VWS V14.01,2013-05-23 14:42:00,
2013-05-23 07:47:00,45.9,45.3,30.00,West,270,0.0,0.0,98,0.04,,---,0.08,VWS V14.01,2013-05-23 14:47:00,
2013-05-23 07:52:00,45.9,45.3,30.00,West,270,0.0,0.0,98,0.04,,---,0.08,VWS V14.01,2013-05-23 14:52:00,
2013-05-23 07:57:00,45.9,45.3,30.00,West,270,0.0,0.0,98,0.08,,---,0.12,VWS V14.01,2013-05-23 14:57:00,
2013-05-23 08:02:00,46.0,45.5,30.00,NW,315,0.0,0.0,98,0.08,,---,0.12,VWS V14.01,2013-05-23 15:02:00,
2013-05-23 08:07:00,46.0,45.5,30.00,West,270,0.0,2.0,98,0.08,,---,0.12,VWS V14.01,2013-05-23 15:07:00,
2013-05-23 08:13:00,46.2,45.7,30.00,WSW,248,0.0,1.1,98,0.08,,---,0.12,VWS V14.01,2013-05-23 15:13:00,
2013-05-23 08:18:00,46.0,45.5,30.03,NW,315,0.0,0.0,98,0.08,,---,0.12,VWS V14.01,2013-05-23 15:18:00,
2013-05-23 08:23:00,46.2,45.7,30.03,WNW,292,0.0,0.0,98,0.08,,---,0.12,VWS V14.01,2013-05-23 15:23:00,
2013-05-23 08:28:00,46.2,45.7,30.03,West,270,1.3,1.3,98,0.08,,---,0.12,VWS V14.01,2013-05-23 15:28:00,
2013-05-23 08:33:00,46.2,45.7,30.00,WNW,292,0.0,0.0,98,0.13,,---,0.17,VWS V14.01,2013-05-23 15:33:00,
2013-05-23 08:38:00,46.4,45.9,30.00,WNW,292,0.0,0.0,98,0.13,,---,0.17,VWS V14.01,2013-05-23 15:38:00,
2013-05-23 08:43:00,46.6,46.0,30.00,ENE,68,2.9,2.9,98,0.09,,---,0.17,VWS V14.01,2013-05-23 15:43:00,
2013-05-23 08:48:00,46.6,46.0,30.03,WSW,248,1.6,2.7,98,0.09,,---,0.17,VWS V14.01,2013-05-23 15:48:00,
2013-05-23 08:53:00,46.6,46.0,30.03,West,270,0.0,0.0,98,0.09,,---,0.17,VWS V14.01,2013-05-23 15:53:00,
2013-05-23 08:58:00,46.9,46.4,30.03,WSW,248,0.0,0.0,98,0.05,,---,0.17,VWS V14.01,2013-05-23 15:58:00,
2013-05-23 09:03:00,47.1,46.6,30.03,SSW,202,0.0,0.9,98,0.05,,---,0.17,VWS V14.01,2013-05-23 16:03:00,
2013-05-23 09:08:00,47.3,46.8,30.03,ESE,112,0.0,0.9,98,0.05,,---,0.17,VWS V14.01,2013-05-23 16:08:00,
2013-05-23 09:13:00,47.7,47.1,30.03,WSW,248,0.0,0.0,98,0.09,,---,0.21,VWS V14.01,2013-05-23 16:13:00,
2013-05-23 09:18:00,48.0,47.5,30.03,SSW,202,0.0,0.9,98,0.09,,---,0.21,VWS V14.01,2013-05-23 16:18:00,
2013-05-23 09:23:00,48.0,47.5,30.03,WSW,248,0.0,0.0,98,0.09,,---,0.21,VWS V14.01,2013-05-23 16:23:00,
2013-05-23 09:28:00,48.2,47.7,30.03,West,270,0.0,0.9,98,0.09,,---,0.21,VWS V14.01,2013-05-23 16:28:00,
2013-05-23 09:33:00,48.6,48.0,30.03,West,270,0.0,0.0,98,0.04,,---,0.21,VWS V14.01,2013-05-23 16:33:00,
2013-05-23 09:38:00,48.4,47.8,30.03,West,270,1.6,2.9,98,0.04,,---,0.21,VWS V14.01,2013-05-23 16:38:00,
2013-05-23 09:43:00,48.6,48.0,30.03,SSW,202,3.8,3.8,98,0.04,,---,0.21,VWS V14.01,2013-05-23 16:43:00,
2013-05-23 09:48:00,48.6,48.0,30.03,West,270,2.5,2.5,98,0.04,,---,0.21,VWS V14.01,2013-05-23 16:48:00,
2013-05-23 09:53:00,48.7,48.2,30.03,SW,225,1.1,2.0,98,0.04,,---,0.21,VWS V14.01,2013-05-23 16:53:00,
2013-05-23 09:58:00,49.3,48.7,30.03,West,270,2.0,2.5,98,0.04,,---,0.21,VWS V14.01,2013-05-23 16:58:00,
2013-05-23 10:03:00,49.5,48.9,30.03,WSW,248,2.2,2.2,98,0.04,,---,0.21,VWS V14.01,2013-05-23 17:03:00,
2013-05-23 10:08:00,49.3,48.7,30.03,West,270,0.0,2.2,98,0.04,,---,0.21,VWS V14.01,2013-05-23 17:08:00,
2013-05-23 10:13:00,48.7,47.9,30.03,WSW,248,1.6,4.9,97,0.00,,---,0.21,VWS V14.01,2013-05-23 17:13:00,
2013-05-23 10:18:00,48.9,48.1,30.03,West,270,2.2,2.5,97,0.00,,---,0.21,VWS V14.01,2013-05-23 17:18:00,
2013-05-23 10:23:00,48.9,48.1,30.03,NNW,338,1.1,2.9,97,0.00,,---,0.21,VWS V14.01,2013-05-23 17:23:00,
2013-05-23 10:28:00,49.1,48.0,30.03,WSW,248,2.7,5.8,96,0.00,,---,0.21,VWS V14.01,2013-05-23 17:28:00,
2013-05-23 10:33:00,49.1,47.7,30.03,South,180,1.3,2.5,95,0.00,,---,0.21,VWS V14.01,2013-05-23 17:33:00,
2013-05-23 10:38:00,49.5,48.1,30.03,West,270,2.9,2.9,95,0.00,,---,0.21,VWS V14.01,2013-05-23 17:38:00,
2013-05-23 10:43:00,49.6,48.5,30.03,WNW,292,0.0,0.0,96,0.00,,---,0.21,VWS V14.01,2013-05-23 17:43:00,
2013-05-23 10:48:00,49.8,48.5,30.03,WSW,248,0.0,2.0,95,0.00,,---,0.21,VWS V14.01,2013-05-23 17:48:00,
2013-05-23 10:53:00,50.2,48.8,30.03,West,270,1.3,4.7,95,0.00,,---,0.21,VWS V14.01,2013-05-23 17:53:00,
2013-05-23 10:58:00,50.0,48.3,30.03,SW,225,1.3,1.3,94,0.00,,---,0.21,VWS V14.01,2013-05-23 17:58:00,
2013-05-23 11:03:00,50.2,48.5,30.03,SSW,202,0.0,1.1,94,0.00,,---,0.21,VWS V14.01,2013-05-23 18:03:00,
2013-05-23 11:08:00,50.2,48.2,30.03,West,270,2.9,2.9,93,0.00,,---,0.21,VWS V14.01,2013-05-23 18:08:00,
2013-05-23 11:13:00,50.2,48.2,30.03,West,270,0.0,1.3,93,0.00,,---,0.21,VWS V14.01,2013-05-23 18:13:00,
2013-05-23 11:18:00,50.5,48.6,30.03,SSE,158,1.6,2.7,93,0.00,,---,0.21,VWS V14.01,2013-05-23 18:18:00,
2013-05-23 11:23:00,50.7,49.1,30.03,WNW,292,0.0,0.0,94,0.00,,---,0.21,VWS V14.01,2013-05-23 18:23:00,
2013-05-23 11:28:00,50.9,49.0,30.03,NNW,338,0.0,1.3,93,0.00,,---,0.21,VWS V14.01,2013-05-23 18:28:00,
2013-05-23 11:33:00,51.1,49.1,30.03,ESE,112,0.0,1.1,93,0.00,,---,0.21,VWS V14.01,2013-05-23 18:33:00,
2013-05-23 11:38:00,51.3,49.0,30.03,WSW,248,0.0,2.0,92,0.00,,---,0.21,VWS V14.01,2013-05-23 18:38:00,
2013-05-23 11:43:00,51.1,48.5,30.03,WSW,248,0.0,2.9,91,0.00,,---,0.21,VWS V14.01,2013-05-23 18:43:00,
2013-05-23 11:48:00,50.9,48.4,30.03,WSW,248,2.7,2.7,91,0.00,,---,0.21,VWS V14.01,2013-05-23 18:48:00,
2013-05-23 11:53:00,51.3,49.0,30.03,SW,225,1.3,1.3,92,0.00,,---,0.21,VWS V14.01,2013-05-23 18:53:00,
2013-05-23 11:58:00,51.3,49.0,30.03,West,270,2.9,2.9,92,0.00,,---,0.21,VWS V14.01,2013-05-23 18:58:00,
2013-05-23 12:03:00,51.6,49.4,30.03,SSW,202,0.0,2.5,92,0.00,,---,0.21,VWS V14.01,2013-05-23 19:03:00,
2013-05-23 12:08:00,52.2,49.9,30.03,WSW,248,0.0,0.0,92,0.00,,---,0.21,VWS V14.01,2013-05-23 19:08:00,
2013-05-23 12:13:00,51.6,48.8,30.03,West,270,0.0,5.8,90,0.00,,---,0.21,VWS V14.01,2013-05-23 19:13:00,
2013-05-23 12:18:00,51.6,48.8,30.03,WSW,248,0.0,0.0,90,0.00,,---,0.21,VWS V14.01,2013-05-23 19:18:00,
2013-05-23 12:23:00,51.4,48.3,30.03,South,180,1.1,2.5,89,0.00,,---,0.21,VWS V14.01,2013-05-23 19:23:00,
2013-05-23 12:28:00,51.6,49.1,30.03,SSE,158,1.1,1.3,91,0.00,,---,0.21,VWS V14.01,2013-05-23 19:28:00,
2013-05-23 12:33:00,52.0,49.4,30.03,WSW,248,0.9,1.1,91,0.00,,---,0.21,VWS V14.01,2013-05-23 19:33:00,
2013-05-23 12:39:00,51.8,49.3,30.03,SSW,202,0.0,0.0,91,0.00,,---,0.21,VWS V14.01,2013-05-23 19:39:00,
2013-05-23 12:44:00,52.0,49.7,30.03,WSW,248,1.1,1.1,92,0.00,,---,0.21,VWS V14.01,2013-05-23 19:44:00,
2013-05-23 12:49:00,52.0,49.4,30.03,NNE,22,2.7,2.7,91,0.00,,---,0.21,VWS V14.01,2013-05-23 19:49:00,
2013-05-23 12:54:00,51.6,49.1,30.03,WNW,292,0.0,0.0,91,0.00,,---,0.21,VWS V14.01,2013-05-23 19:54:00,
2013-05-23 12:59:00,51.4,48.9,30.03,SSW,202,0.0,0.0,91,0.00,,---,0.21,VWS V14.01,2013-05-23 19:59:00,
2013-05-23 13:04:00,51.4,48.9,30.03,WSW,248,0.0,0.0,91,0.04,,---,0.25,VWS V14.01,2013-05-23 20:04:00,
2013-05-23 13:09:00,51.6,49.4,30.03,SSE,158,0.0,0.0,92,0.04,,---,0.25,VWS V14.01,2013-05-23 20:09:00,
2013-05-23 13:14:00,51.6,49.4,30.03,NW,315,1.3,1.3,92,0.04,,---,0.25,VWS V14.01,2013-05-23 20:14:00,
2013-05-23 13:19:00,51.6,49.4,30.03,West,270,0.0,1.1,92,0.04,,---,0.25,VWS V14.01,2013-05-23 20:19:00,
2013-05-23 13:24:00,51.6,49.7,30.03,SW,225,0.0,0.0,93,0.04,,---,0.25,VWS V14.01,2013-05-23 20:24:00,
2013-05-23 13:29:00,52.0,50.0,30.03,SW,225,0.0,0.0,93,0.04,,---,0.25,VWS V14.01,2013-05-23 20:29:00,
2013-05-23 13:34:00,52.0,50.0,30.03,ESE,112,0.0,0.9,93,0.08,,---,0.29,VWS V14.01,2013-05-23 20:34:00,
2013-05-23 13:39:00,52.0,50.0,30.03,SSE,158,0.0,1.6,93,0.08,,---,0.29,VWS V14.01,2013-05-23 20:39:00,
2013-05-23 13:44:00,52.2,50.2,30.03,West,270,0.0,2.0,93,0.08,,---,0.29,VWS V14.01,2013-05-23 20:44:00,
2013-05-23 13:49:00,52.2,49.9,30.03,WSW,248,2.0,2.5,92,0.08,,---,0.29,VWS V14.01,2013-05-23 20:49:00,
2013-05-23 13:54:00,51.8,49.5,30.03,West,270,2.2,2.2,92,0.08,,---,0.29,VWS V14.01,2013-05-23 20:54:00,
2013-05-23 13:59:00,51.4,48.9,30.03,South,180,0.0,2.0,91,0.08,,---,0.29,VWS V14.01,2013-05-23 20:59:00,
2013-05-23 14:04:00,51.6,49.4,30.03,NNW,338,0.0,0.0,92,0.04,,---,0.29,VWS V14.01,2013-05-23 21:04:00,
2013-05-23 14:09:00,51.4,49.2,30.03,SW,225,0.0,1.6,92,0.08,,---,0.33,VWS V14.01,2013-05-23 21:09:00,
2013-05-23 14:14:00,51.6,49.7,30.03,WNW,292,0.0,0.0,93,0.08,,---,0.33,VWS V14.01,2013-05-23 21:14:00,
2013-05-23 14:19:00,51.4,49.5,30.03,SW,225,0.0,2.7,93,0.08,,---,0.33,VWS V14.01,2013-05-23 21:19:00,
2013-05-23 14:24:00,51.3,49.3,30.03,West,270,0.0,0.0,93,0.08,,---,0.33,VWS V14.01,2013-05-23 21:24:00,
2013-05-23 14:30:00,51.1,49.1,30.03,WSW,248,0.0,0.0,93,0.12,,---,0.37,VWS V14.01,2013-05-23 21:30:00,
2013-05-23 14:35:00,50.9,49.0,30.03,SW,225,0.0,0.0,93,0.08,,---,0.37,VWS V14.01,2013-05-23 21:35:00,
2013-05-23 14:40:00,51.1,49.4,30.03,SW,225,0.0,0.0,94,0.08,,---,0.37,VWS V14.01,2013-05-23 21:40:00,
2013-05-23 14:45:00,51.1,49.4,30.03,WSW,248,0.0,0.0,94,0.12,,---,0.41,VWS V14.01,2013-05-23 21:45:00,
2013-05-23 14:50:00,51.1,49.4,30.03,SW,225,0.0,0.0,94,0.12,,---,0.41,VWS V14.01,2013-05-23 21:50:00,
2013-05-23 14:55:00,51.3,49.6,30.03,SSE,158,0.0,0.0,94,0.12,,---,0.41,VWS V14.01,2013-05-23 21:55:00,
2013-05-23 15:00:00,51.3,49.6,30.06,WSW,248,0.0,0.0,94,0.12,,---,0.41,VWS V14.01,2013-05-23 22:00:00,
2013-05-23 15:05:00,51.1,49.4,30.06,ESE,112,0.0,1.1,94,0.12,,---,0.41,VWS V14.01,2013-05-23 22:05:00,
2013-05-23 15:10:00,51.1,49.7,30.06,WSW,248,0.0,0.0,95,0.08,,---,0.41,VWS V14.01,2013-05-23 22:10:00,
2013-05-23 15:15:00,50.9,49.2,30.03,WSW,248,0.0,1.1,94,0.08,,---,0.41,VWS V14.01,2013-05-23 22:15:00,
2013-05-23 15:20:00,50.9,49.2,30.03,WSW,248,0.0,0.0,94,0.08,,---,0.41,VWS V14.01,2013-05-23 22:20:00,
2013-05-23 15:25:00,51.1,49.7,30.03,ENE,68,2.7,2.7,95,0.08,,---,0.41,VWS V14.01,2013-05-23 22:25:00,
2013-05-23 15:30:00,51.1,49.7,30.03,NW,315,0.0,1.1,95,0.04,,---,0.41,VWS V14.01,2013-05-23 22:30:00,
2013-05-23 15:35:00,51.3,49.9,30.03,NW,315,0.0,0.0,95,0.04,,---,0.41,VWS V14.01,2013-05-23 22:35:00,
2013-05-23 15:40:00,51.3,49.9,30.03,NW,315,0.0,2.0,95,0.04,,---,0.41,VWS V14.01,2013-05-23 22:40:00,
2013-05-23 15:45:00,51.1,49.4,30.03,South,180,0.0,0.0,94,0.04,,---,0.45,VWS V14.01,2013-05-23 22:45:00,
2013-05-23 15:50:00,50.9,49.2,30.03,West,270,1.3,1.6,94,0.04,,---,0.45,VWS V14.01,2013-05-23 22:50:00,
2013-05-23 15:55:00,50.7,48.8,30.03,West,270,2.2,2.2,93,0.04,,---,0.45,VWS V14.01,2013-05-23 22:55:00,
2013-05-23 16:00:00,50.9,49.2,30.03,WNW,292,0.9,0.9,94,0.04,,---,0.45,VWS V14.01,2013-05-23 23:00:00,
2013-05-23 16:06:00,51.1,49.4,30.03,WSW,248,1.1,1.1,94,0.04,,---,0.45,VWS V14.01,2013-05-23 23:06:00,
2013-05-23 16:10:00,51.3,49.6,30.03,SW,225,0.0,0.0,94,0.04,,---,0.45,VWS V14.01,2013-05-23 23:10:00,
2013-05-23 16:16:00,51.4,49.8,30.03,NNW,338,0.0,0.0,94,0.04,,---,0.45,VWS V14.01,2013-05-23 23:16:00,
2013-05-23 16:21:00,51.6,50.0,30.03,WSW,248,0.0,0.0,94,0.04,,---,0.45,VWS V14.01,2013-05-23 23:21:00,
2013-05-23 16:26:00,51.4,49.8,30.03,SW,225,0.9,0.9,94,0.04,,---,0.45,VWS V14.01,2013-05-23 23:26:00,
2013-05-23 16:31:00,51.4,49.8,30.03,NW,315,1.6,1.6,94,0.04,,---,0.45,VWS V14.01,2013-05-23 23:31:00,
2013-05-23 16:36:00,51.4,49.5,30.03,SW,225,0.0,0.0,93,0.04,,---,0.45,VWS V14.01,2013-05-23 23:36:00,
2013-05-23 16:41:00,51.3,49.3,30.03,West,270,2.2,2.2,93,0.04,,---,0.45,VWS V14.01,2013-05-23 23:41:00,
2013-05-23 16:46:00,51.1,49.1,30.00,WSW,248,0.0,0.9,93,0.00,,---,0.45,VWS V14.01,2013-05-23 23:46:00,
2013-05-23 16:51:00,50.9,49.0,30.00,North,0,0.9,2.0,93,0.00,,---,0.45,VWS V14.01,2013-05-23 23:51:00,
2013-05-23 16:56:00,50.7,48.8,30.00,NNW,338,0.0,0.0,93,0.00,,---,0.45,VWS V14.01,2013-05-23 23:56:00,
2013-05-23 17:01:00,50.5,48.6,30.00,NW,315,0.0,0.0,93,0.00,,---,0.45,VWS V14.01,2013-05-24 00:01:00,
2013-05-23 17:06:00,50.4,48.4,30.00,West,270,4.0,4.0,93,0.05,,---,0.50,VWS V14.01,2013-05-24 00:06:00,
2013-05-23 17:11:00,50.4,48.7,30.00,NW,315,0.0,0.0,94,0.05,,---,0.50,VWS V14.01,2013-05-24 00:11:00,
2013-05-23 17:16:00,50.5,48.9,30.00,WNW,292,0.0,1.6,94,0.05,,---,0.50,VWS V14.01,2013-05-24 00:16:00,
2013-05-23 17:21:00,50.7,49.3,30.00,NNW,338,0.0,0.0,95,0.05,,---,0.50,VWS V14.01,2013-05-24 00:21:00,
2013-05-23 17:26:00,50.7,49.3,30.00,NW,315,0.0,0.0,95,0.05,,---,0.50,VWS V14.01,2013-05-24 00:26:00,
2013-05-23 17:31:00,50.5,48.9,30.00,West,270,0.0,4.3,94,0.05,,---,0.50,VWS V14.01,2013-05-24 00:31:00,
2013-05-23 17:37:00,50.5,48.9,30.00,SSE,158,0.0,1.1,94,0.05,,---,0.50,VWS V14.01,2013-05-24 00:37:00,
2013-05-23 17:42:00,50.5,49.2,30.00,South,180,0.0,0.0,95,0.05,,---,0.50,VWS V14.01,2013-05-24 00:42:00,
2013-05-23 17:47:00,50.5,49.2,30.00,WSW,248,0.0,0.0,95,0.05,,---,0.50,VWS V14.01,2013-05-24 00:47:00,
2013-05-23 17:52:00,50.4,49.0,30.00,North,0,0.0,0.0,95,0.05,,---,0.50,VWS V14.01,2013-05-24 00:52:00,
2013-05-23 17:57:00,50.4,49.0,30.00,West,270,1.3,1.6,95,0.05,,---,0.50,VWS V14.01,2013-05-24 00:57:00,
2013-05-23 18:02:00,50.0,48.3,30.00,West,270,1.3,1.3,94,0.05,,---,0.50,VWS V14.01,2013-05-24 01:02:00,
2013-05-23 18:07:00,49.8,48.5,30.00,NE,45,1.6,2.0,95,0.04,,---,0.54,VWS V14.01,2013-05-24 01:07:00,
2013-05-23 18:12:00,49.5,48.1,30.00,WNW,292,0.0,0.0,95,0.04,,---,0.54,VWS V14.01,2013-05-24 01:12:00,
2013-05-23 18:17:00,49.5,48.1,30.00,WNW,292,0.0,0.0,95,0.04,,---,0.54,VWS V14.01,2013-05-24 01:17:00,
2013-05-23 18:22:00,49.1,47.7,30.00,SW,225,0.0,0.0,95,0.08,,---,0.58,VWS V14.01,2013-05-24 01:22:00,
2013-05-23 18:27:00,49.1,47.7,30.00,South,180,0.0,0.0,95,0.08,,---,0.58,VWS V14.01,2013-05-24 01:27:00,
2013-05-23 18:32:00,49.1,48.0,30.00,South,180,0.0,0.0,96,0.08,,---,0.58,VWS V14.01,2013-05-24 01:32:00,
2013-05-23 18:37:00,49.1,48.0,30.00,South,180,0.0,0.0,96,0.08,,---,0.58,VWS V14.01,2013-05-24 01:37:00,
2013-05-23 18:42:00,49.1,48.0,30.00,West,270,1.3,1.3,96,0.08,,---,0.58,VWS V14.01,2013-05-24 01:42:00,
2013-05-23 18:47:00,48.9,47.8,30.00,WNW,292,0.0,0.0,96,0.08,,---,0.58,VWS V14.01,2013-05-24 01:47:00,
2013-05-23 18:52:00,48.9,47.8,30.00,NW,315,0.0,0.0,96,0.12,,---,0.62,VWS V14.01,2013-05-24 01:52:00,
2013-05-23 18:58:00,48.7,47.7,30.00,SW,225,0.9,0.9,96,0.12,,---,0.62,VWS V14.01,2013-05-24 01:58:00,
2013-05-23 19:02:00,48.7,47.9,30.00,West,270,1.1,1.1,97,0.12,,---,0.62,VWS V14.01,2013-05-24 02:02:00,
2013-05-23 19:08:00,48.7,47.9,30.00,West,270,0.0,0.0,97,0.12,,---,0.66,VWS V14.01,2013-05-24 02:08:00,
2013-05-23 19:13:00,48.6,47.8,30.00,West,270,0.0,0.0,97,0.16,,---,0.70,VWS V14.01,2013-05-24 02:13:00,
2013-05-23 19:18:00,48.6,47.8,30.00,SSW,202,0.0,0.0,97,0.16,,---,0.70,VWS V14.01,2013-05-24 02:18:00,
2013-05-23 19:23:00,48.4,47.6,30.00,SSE,158,0.0,0.0,97,0.12,,---,0.70,VWS V14.01,2013-05-24 02:23:00,
2013-05-23 19:28:00,48.4,47.8,30.00,West,270,0.0,0.0,98,0.17,,---,0.75,VWS V14.01,2013-05-24 02:28:00,
2013-05-23 19:33:00,48.2,47.7,30.00,WNW,292,0.9,1.3,98,0.17,,---,0.75,VWS V14.01,2013-05-24 02:33:00,
2013-05-23 19:38:00,48.2,47.7,30.00,West,270,0.0,0.0,98,0.20,,---,0.78,VWS V14.01,2013-05-24 02:38:00,
2013-05-23 19:43:00,48.2,47.7,30.00,West,270,0.0,0.0,98,0.20,,---,0.78,VWS V14.01,2013-05-24 02:43:00,
2013-05-23 19:48:00,48.0,47.5,30.00,West,270,0.0,0.0,98,0.20,,---,0.78,VWS V14.01,2013-05-24 02:48:00,
2013-05-23 19:53:00,48.0,47.5,30.00,NW,315,0.0,0.0,98,0.21,,---,0.83,VWS V14.01,2013-05-24 02:53:00,
2013-05-23 19:58:00,48.0,47.5,30.00,SSW,202,0.0,0.0,98,0.21,,---,0.83,VWS V14.01,2013-05-24 02:58:00,
2013-05-23 20:03:00,47.8,47.3,30.00,WSW,248,0.0,0.0,98,0.25,,---,0.87,VWS V14.01,2013-05-24 03:03:00,
2013-05-23 20:08:00,47.8,47.3,30.00,WSW,248,0.0,0.0,98,0.21,,---,0.87,VWS V14.01,2013-05-24 03:08:00,
2013-05-23 20:13:00,47.8,47.3,30.00,WSW,248,0.0,0.0,98,0.17,,---,0.87,VWS V14.01,2013-05-24 03:13:00,
2013-05-23 20:18:00,47.7,47.1,30.00,SSW,202,1.3,1.3,98,0.17,,---,0.87,VWS V14.01,2013-05-24 03:18:00,
2013-05-23 20:23:00,47.7,47.1,30.00,West,270,0.0,0.0,98,0.17,,---,0.87,VWS V14.01,2013-05-24 03:23:00,
2013-05-23 20:28:00,47.5,47.0,30.00,West,270,0.0,0.0,98,0.12,,---,0.87,VWS V14.01,2013-05-24 03:28:00,
2013-05-23 20:33:00,47.3,46.8,30.00,West,270,1.6,2.5,98,0.12,,---,0.87,VWS V14.01,2013-05-24 03:33:00,
2013-05-23 20:38:00,47.3,46.8,30.00,WNW,292,0.0,0.0,98,0.09,,---,0.87,VWS V14.01,2013-05-24 03:38:00,
2013-05-23 20:43:00,47.1,46.6,30.00,WNW,292,0.0,0.0,98,0.09,,---,0.87,VWS V14.01,2013-05-24 03:43:00,
2013-05-23 20:48:00,47.1,46.6,30.00,West,270,1.1,1.1,98,0.09,,---,0.87,VWS V14.01,2013-05-24 03:48:00,
2013-05-23 20:53:00,46.9,46.4,30.00,West,270,0.0,0.0,98,0.04,,---,0.87,VWS V14.01,2013-05-24 03:53:00,
2013-05-23 20:59:00,46.9,46.4,30.00,WNW,292,0.0,0.0,98,0.08,,---,0.91,VWS V14.01,2013-05-24 03:59:00,
2013-05-23 21:01:00,46.9,46.4,30.00,WNW,292,0.0,0.0,98,0.08,,---,0.91,VWS V14.01,2013-05-24 04:01:00,
2013-05-23 21:02:00,46.8,46.2,30.00,West,270,1.1,1.1,98,0.08,,---,0.91,VWS V14.01,2013-05-24 04:02:00,
2013-05-23 21:04:00,46.8,46.2,30.00,West,270,0.0,0.0,98,0.04,,---,0.91,VWS V14.01,2013-05-24 04:04:00,
2013-05-23 21:09:00,46.8,46.2,30.00,West,270,0.0,0.0,98,0.04,,---,0.91,VWS V14.01,2013-05-24 04:09:00,
2013-05-23 21:15:00,46.8,46.2,30.00,West,270,0.0,0.0,98,0.04,,---,0.91,VWS V14.01,2013-05-24 04:15:00,
2013-05-23 21:20:00,46.8,46.2,30.00,West,270,0.0,0.0,98,0.04,,---,0.91,VWS V14.01,2013-05-24 04:20:00,
2013-05-23 21:25:00,46.6,46.0,30.00,West,270,0.0,0.0,98,0.04,,---,0.91,VWS V14.01,2013-05-24 04:25:00,
2013-05-23 21:30:00,46.6,46.0,30.00,West,270,0.0,0.0,98,0.04,,---,0.91,VWS V14.01,2013-05-24 04:30:00,
2013-05-23 21:35:00,46.6,46.0,30.00,West,270,0.0,0.0,98,0.04,,---,0.91,VWS V14.01,2013-05-24 04:35:00,
2013-05-23 21:40:00,46.6,46.0,30.00,West,270,0.0,0.0,98,0.04,,---,0.91,VWS V14.01,2013-05-24 04:40:00,
2013-05-23 21:45:00,46.6,46.0,30.00,West,270,0.0,0.0,98,0.04,,---,0.91,VWS V14.01,2013-05-24 04:45:00,
2013-05-23 21:50:00,46.6,46.0,30.00,West,270,0.0,0.0,98,0.04,,---,0.91,VWS V14.01,2013-05-24 04:50:00,
2013-05-23 21:55:00,46.6,46.0,30.00,West,270,0.0,0.0,98,0.04,,---,0.91,VWS V14.01,2013-05-24 04:55:00,
2013-05-23 22:00:00,46.6,46.0,30.00,West,270,0.0,0.0,98,0.00,,---,0.91,VWS V14.01,2013-05-24 05:00:00,
2013-05-23 22:05:00,46.6,46.0,30.00,West,270,0.0,0.0,98,0.00,,---,0.91,VWS V14.01,2013-05-24 05:05:00,
2013-05-23 22:10:00,46.6,46.0,30.00,West,270,0.0,0.0,98,0.00,,---,0.91,VWS V14.01,2013-05-24 05:10:00,
2013-05-23 22:15:00,46.6,46.0,30.00,West,270,0.0,0.0,98,0.00,,---,0.91,VWS V14.01,2013-05-24 05:15:00,
2013-05-23 22:20:00,46.6,46.0,30.00,West,270,0.0,0.0,98,0.00,,---,0.91,VWS V14.01,2013-05-24 05:20:00,
2013-05-23 22:25:00,46.6,46.0,30.00,West,270,0.0,0.0,98,0.04,,---,0.95,VWS V14.01,2013-05-24 05:25:00,
2013-05-23 22:30:00,46.4,45.9,30.00,West,270,0.0,0.0,98,0.04,,---,0.95,VWS V14.01,2013-05-24 05:30:00,
2013-05-23 22:35:00,46.4,45.9,30.00,West,270,0.0,0.0,98,0.04,,---,0.95,VWS V14.01,2013-05-24 05:35:00,
2013-05-23 22:40:00,46.4,45.9,30.00,West,270,0.0,0.0,98,0.04,,---,0.95,VWS V14.01,2013-05-24 05:40:00,
2013-05-23 22:45:00,46.4,45.9,30.00,West,270,0.0,0.0,98,0.04,,---,0.95,VWS V14.01,2013-05-24 05:45:00,
2013-05-23 22:50:00,46.4,45.9,30.00,West,270,0.0,0.0,98,0.04,,---,0.95,VWS V14.01,2013-05-24 05:50:00,
2013-05-23 22:56:00,46.2,45.7,30.00,West,270,0.0,0.0,98,0.04,,---,0.95,VWS V14.01,2013-05-24 05:56:00,
2013-05-23 23:04:00,46.4,45.9,30.00,West,270,0.0,0.0,98,0.04,,---,0.95,VWS V14.01,2013-05-24 06:04:00,
2013-05-23 23:09:00,46.4,45.9,30.00,West,270,0.0,0.0,98,0.04,,---,0.95,VWS V14.01,2013-05-24 06:09:00,
2013-05-23 23:14:00,46.4,45.9,30.00,West,270,0.0,0.0,98,0.04,,---,0.95,VWS V14.01,2013-05-24 06:14:00,
2013-05-23 23:19:00,46.4,45.9,30.00,West,270,0.0,0.0,98,0.04,,---,0.95,VWS V14.01,2013-05-24 06:19:00,
2013-05-23 23:24:00,46.2,45.7,30.00,West,270,0.0,0.0,98,0.04,,---,0.95,VWS V14.01,2013-05-24 06:24:00,
2013-05-23 23:29:00,46.4,45.9,30.00,West,270,0.0,0.0,98,0.00,,---,0.95,VWS V14.01,2013-05-24 06:29:00,
2013-05-23 23:34:00,46.4,45.9,30.00,West,270,0.0,0.0,98,0.00,,---,0.95,VWS V14.01,2013-05-24 06:34:00,
2013-05-23 23:39:00,46.4,45.9,30.00,West,270,0.0,0.0,98,0.00,,---,0.95,VWS V14.01,2013-05-24 06:39:00,
2013-05-23 23:44:00,46.2,45.7,30.00,West,270,0.0,0.0,98,0.00,,---,0.95,VWS V14.01,2013-05-24 06:44:00,
2013-05-23 23:49:00,46.4,45.9,30.00,West,270,0.0,0.0,98,0.00,,---,0.95,VWS V14.01,2013-05-24 06:49:00,
2013-05-23 23:54:00,46.4,45.9,30.00,West,270,0.0,0.0,98,0.00,,---,0.95,VWS V14.01,2013-05-24 06:54:00,
2013-05-23 23:59:00,46.2,45.7,30.00,West,270,0.0,0.0,98,0.00,,---,0.00,VWS V14.01,2013-05-24 06:59:00,